createdAt,value
2019-02-11T00:01:36.977Z,6.40
2019-02-11T00:03:38.426Z,6.40
2019-02-11T00:05:39.807Z,6.30
2019-02-11T00:07:41.167Z,6.30
2019-02-11T00:09:43.281Z,6.30
2019-02-11T00:11:44.668Z,6.20
2019-02-11T00:13:46.024Z,6.10
2019-02-11T00:15:47.461Z,6.00
2019-02-11T00:17:48.851Z,5.80
2019-02-11T00:19:50.229Z,5.70
2019-02-11T00:21:51.636Z,5.60
2019-02-11T00:23:53.080Z,5.50
2019-02-11T00:25:54.501Z,5.50
2019-02-11T00:27:55.907Z,5.50
2019-02-11T00:29:57.382Z,5.50
2019-02-11T00:31:58.776Z,5.50
2019-02-11T00:34:00.224Z,5.50
2019-02-11T00:36:01.609Z,5.50
2019-02-11T00:38:02.987Z,5.40
2019-02-11T00:40:06.717Z,5.40
2019-02-11T00:42:08.086Z,5.30
2019-02-11T00:44:09.551Z,5.20
2019-02-11T00:46:10.964Z,5.00
2019-02-11T00:48:12.354Z,4.90
2019-02-11T00:50:13.791Z,4.70
2019-02-11T00:52:15.167Z,4.60
2019-02-11T00:54:16.554Z,4.50
2019-02-11T00:56:18.079Z,4.40
2019-02-11T00:58:19.503Z,4.30
2019-02-11T01:00:21.039Z,4.30
2019-02-11T01:02:22.425Z,4.20
2019-02-11T01:04:23.815Z,4.10
2019-02-11T01:06:25.535Z,3.90
2019-02-11T01:08:26.920Z,3.80
2019-02-11T01:10:28.308Z,3.70
2019-02-11T01:12:29.733Z,3.70
2019-02-11T01:14:31.126Z,3.60
2019-02-11T01:16:32.533Z,3.50
2019-02-11T01:18:33.949Z,3.50
2019-02-11T01:20:35.339Z,3.40
2019-02-11T01:22:36.774Z,3.40
2019-02-11T01:24:38.151Z,3.30
2019-02-11T01:26:39.533Z,3.30
2019-02-11T01:28:41.359Z,3.30
2019-02-11T01:30:42.735Z,3.20
2019-02-11T01:32:44.113Z,3.20
2019-02-11T01:34:45.555Z,3.20
2019-02-11T01:36:46.941Z,3.10
2019-02-11T01:38:48.319Z,3.00
2019-02-11T01:40:49.752Z,3.00
2019-02-11T01:42:51.148Z,3.00
2019-02-11T01:44:52.619Z,2.90
2019-02-11T01:46:54.078Z,2.80
2019-02-11T01:48:55.472Z,2.70
2019-02-11T01:50:56.828Z,2.70
2019-02-11T01:52:58.276Z,2.50
2019-02-11T01:54:59.657Z,2.50
2019-02-11T01:57:01.038Z,2.40
2019-02-11T01:59:02.594Z,2.30
2019-02-11T02:01:04.021Z,2.20
2019-02-11T02:03:05.613Z,2.20
2019-02-11T02:05:08.109Z,2.10
2019-02-11T02:07:09.563Z,2.00
2019-02-11T02:09:10.942Z,2.00
2019-02-11T02:11:12.312Z,1.90
2019-02-11T02:13:14.012Z,1.90
2019-02-11T02:15:15.573Z,1.80
2019-02-11T02:17:17.115Z,1.70
2019-02-11T02:19:18.589Z,1.60
2019-02-11T02:21:20.127Z,1.50
2019-02-11T02:23:21.569Z,1.40
2019-02-11T02:25:24.799Z,1.30
2019-02-11T02:27:26.490Z,1.10
2019-02-11T02:29:28.031Z,1.10
2019-02-11T02:31:29.420Z,1.10
2019-02-11T02:33:30.991Z,1.00
2019-02-11T02:35:32.494Z,1.00
2019-02-11T02:37:33.920Z,1.00
2019-02-11T02:39:35.706Z,1.00
2019-02-11T02:41:37.405Z,0.90
2019-02-11T02:43:40.160Z,1.00
2019-02-11T02:45:41.715Z,0.90
2019-02-11T02:47:43.195Z,0.90
2019-02-11T02:49:46.160Z,0.90
2019-02-11T02:51:47.614Z,0.80
2019-02-11T02:53:49.298Z,0.80
2019-02-11T02:55:51.074Z,0.80
2019-02-11T02:57:55.355Z,0.80
2019-02-11T02:59:57.186Z,0.80
2019-02-11T03:01:58.720Z,0.80
2019-02-11T03:04:00.346Z,0.80
2019-02-11T03:06:01.954Z,0.80
2019-02-11T03:08:03.574Z,0.80
2019-02-11T03:10:09.002Z,0.80
2019-02-11T03:12:10.467Z,0.80
2019-02-11T03:14:11.945Z,0.90
2019-02-11T03:16:13.395Z,0.90
2019-02-11T03:18:14.854Z,1.00
2019-02-11T03:20:16.248Z,1.00
2019-02-11T03:22:24.186Z,1.10
2019-02-11T03:24:28.386Z,1.20
2019-02-11T03:26:32.705Z,1.20
2019-02-11T03:28:44.330Z,1.30
2019-02-11T03:30:54.707Z,1.50
2019-02-11T03:33:00.347Z,1.50
2019-02-11T03:35:05.121Z,1.70
2019-02-11T03:37:07.064Z,1.80
2019-02-11T03:39:10.243Z,1.90
2019-02-11T03:41:12.113Z,2.10
2019-02-11T03:43:17.088Z,2.10
2019-02-11T03:45:22.366Z,2.20
2019-02-11T03:47:24.028Z,2.30
2019-02-11T03:49:25.684Z,2.40
2019-02-11T03:51:29.108Z,2.50
2019-02-11T03:53:31.659Z,2.60
2019-02-11T03:55:33.657Z,2.80
2019-02-11T03:57:35.159Z,2.80
2019-02-11T03:59:36.748Z,2.90
2019-02-11T04:01:38.242Z,3.00
2019-02-11T04:03:39.860Z,3.10
2019-02-11T04:05:41.287Z,3.10
2019-02-11T04:07:42.649Z,3.10
2019-02-11T04:09:46.412Z,3.20
2019-02-11T04:11:48.566Z,3.20
2019-02-11T04:13:50.103Z,3.20
2019-02-11T04:15:51.488Z,3.30
2019-02-11T04:17:53.071Z,3.30
2019-02-11T04:19:56.246Z,3.30
2019-02-11T04:22:09.509Z,3.30
2019-02-11T04:24:16.267Z,3.30
2019-02-11T04:26:32.445Z,3.40
2019-02-11T04:28:50.587Z,3.40
2019-02-11T04:30:54.275Z,3.40
2019-02-11T04:32:58.808Z,3.40
2019-02-11T04:35:00.676Z,3.40
2019-02-11T04:37:03.013Z,3.40
2019-02-11T04:39:04.773Z,3.50
2019-02-11T04:41:06.610Z,3.50
2019-02-11T04:43:09.827Z,3.40
2019-02-11T04:45:12.517Z,3.50
2019-02-11T04:47:14.011Z,3.50
2019-02-11T04:49:15.654Z,3.50
2019-02-11T04:51:20.074Z,3.50
2019-02-11T04:53:25.263Z,3.50
2019-02-11T04:55:28.258Z,3.50
2019-02-11T04:57:31.647Z,3.50
2019-02-11T04:59:33.426Z,3.50
2019-02-11T05:03:57.607Z,3.50
2019-02-11T05:05:59.307Z,3.60
2019-02-11T05:08:00.753Z,3.50
2019-02-11T05:10:14.760Z,3.50
2019-02-11T05:12:16.207Z,3.60
2019-02-11T05:14:17.608Z,3.50
2019-02-11T05:16:19.035Z,3.50
2019-02-11T05:18:20.529Z,3.50
2019-02-11T05:20:22.015Z,3.60
2019-02-11T05:22:23.394Z,3.60
2019-02-11T05:24:24.806Z,3.60
2019-02-11T05:26:26.384Z,3.60
2019-02-11T05:28:27.773Z,3.60
2019-02-11T05:33:33.142Z,3.70
2019-02-11T05:35:34.541Z,3.60
2019-02-11T05:37:55.800Z,3.60
2019-02-11T05:40:17.094Z,3.70
2019-02-11T05:42:38.378Z,3.70
2019-02-11T05:44:59.635Z,3.70
2019-02-11T05:47:20.946Z,3.70
2019-02-11T05:49:42.217Z,3.70
2019-02-11T05:52:03.507Z,3.80
2019-02-11T05:54:24.762Z,3.80
2019-02-11T05:56:46.018Z,3.80
2019-02-11T05:59:07.356Z,3.80
2019-02-11T06:01:21.985Z,3.80
2019-02-11T06:03:36.928Z,3.80
2019-02-11T06:05:58.208Z,3.80
2019-02-11T06:08:19.473Z,3.80
2019-02-11T06:10:40.776Z,3.90
2019-02-11T06:13:02.101Z,3.90
2019-02-11T06:15:23.469Z,3.90
2019-02-11T06:17:44.733Z,3.90
2019-02-11T06:20:29.050Z,3.90
2019-02-11T06:22:50.504Z,3.90
2019-02-11T06:24:51.896Z,3.90
2019-02-11T06:27:13.167Z,4.00
2019-02-11T06:29:34.446Z,4.00
2019-02-11T06:31:55.740Z,4.00
2019-02-11T06:34:16.987Z,4.00
2019-02-11T06:36:38.270Z,4.00
2019-02-11T06:38:59.536Z,4.00
2019-02-11T06:41:20.927Z,4.00
2019-02-11T06:43:42.164Z,4.00
2019-02-11T06:46:03.417Z,4.00
2019-02-11T06:48:24.709Z,4.00
2019-02-11T06:50:26.102Z,4.00
2019-02-11T06:52:47.364Z,4.00
2019-02-11T06:55:02.425Z,4.00
2019-02-11T06:57:23.689Z,4.00
2019-02-11T06:59:44.944Z,4.00
2019-02-11T07:02:06.237Z,4.00
2019-02-11T07:04:27.702Z,4.10
2019-02-11T07:06:48.989Z,4.10
2019-02-11T07:09:10.268Z,4.10
2019-02-11T07:11:31.534Z,4.10
2019-02-11T07:13:52.801Z,4.20
2019-02-11T07:16:07.580Z,4.20
2019-02-11T07:18:28.837Z,4.20
2019-02-11T07:20:50.100Z,4.20
2019-02-11T07:23:11.604Z,4.20
2019-02-11T07:25:32.871Z,4.10
2019-02-11T07:27:54.131Z,4.30
2019-02-11T07:30:15.438Z,4.30
2019-02-11T07:32:36.695Z,4.30
2019-02-11T07:34:57.933Z,4.30
2019-02-11T07:37:19.214Z,4.20
2019-02-11T07:39:40.738Z,4.20
2019-02-11T07:42:21.878Z,4.20
2019-02-11T07:47:26.436Z,4.20
2019-02-11T07:49:48.721Z,4.20
2019-02-11T07:52:10.005Z,4.20
2019-02-11T07:54:31.371Z,4.30
2019-02-11T07:56:52.669Z,4.30
2019-02-11T07:59:13.951Z,4.20
2019-02-11T08:01:35.186Z,4.30
2019-02-11T08:03:58.394Z,4.30
2019-02-11T08:06:21.554Z,4.30
2019-02-11T08:08:42.796Z,4.30
2019-02-11T08:11:04.084Z,4.30
2019-02-11T08:13:26.700Z,4.30
2019-02-11T08:16:08.425Z,4.30
2019-02-11T08:18:29.727Z,4.30
2019-02-11T08:20:51.039Z,4.30
2019-02-11T08:23:14.193Z,4.30
2019-02-11T08:25:35.459Z,4.30
2019-02-11T08:27:50.661Z,4.30
2019-02-11T08:30:12.129Z,4.30
2019-02-11T08:32:33.393Z,4.30
2019-02-11T08:34:54.677Z,4.30
2019-02-11T08:37:15.922Z,4.40
2019-02-11T08:39:37.183Z,4.30
2019-02-11T08:41:58.471Z,4.40
2019-02-11T08:44:19.816Z,4.50
2019-02-11T08:46:41.079Z,4.50
2019-02-11T08:49:02.636Z,4.50
2019-02-11T08:51:23.977Z,4.50
2019-02-11T08:53:45.217Z,4.50
2019-02-11T08:56:06.636Z,4.50
2019-02-11T08:58:27.885Z,4.60
2019-02-11T09:00:49.126Z,4.60
2019-02-11T09:03:10.688Z,4.70
2019-02-11T09:05:31.982Z,4.70
2019-02-11T09:07:53.235Z,4.70
2019-02-11T09:10:14.616Z,4.70
2019-02-11T09:12:35.959Z,4.70
2019-02-11T09:14:57.249Z,4.70
2019-02-11T09:17:20.439Z,4.70
2019-02-11T09:19:21.829Z,4.70
2019-02-11T09:21:43.116Z,4.70
2019-02-11T09:24:04.378Z,4.70
2019-02-11T09:26:25.667Z,4.60
2019-02-11T09:28:40.730Z,4.60
2019-02-11T09:31:01.997Z,4.60
2019-02-11T09:33:23.265Z,4.50
2019-02-11T09:35:44.735Z,4.50
2019-02-11T09:38:05.998Z,4.40
2019-02-11T09:40:27.282Z,4.30
2019-02-11T09:42:48.537Z,4.30
2019-02-11T09:45:31.594Z,4.30
2019-02-11T09:47:52.958Z,4.30
2019-02-11T09:50:37.958Z,4.30
2019-02-11T09:52:59.326Z,4.30
2019-02-11T09:55:43.850Z,4.30
2019-02-11T09:58:05.149Z,4.40
2019-02-11T10:00:26.497Z,4.60
2019-02-11T10:02:47.981Z,4.90
2019-02-11T10:05:09.306Z,5.00
2019-02-11T10:07:30.574Z,5.00
2019-02-11T10:09:51.861Z,4.90
2019-02-11T10:12:21.087Z,4.90
2019-02-11T10:14:56.221Z,4.80
2019-02-11T10:17:17.474Z,4.80
2019-02-11T10:19:38.764Z,4.70
2019-02-11T10:22:00.025Z,4.60
2019-02-11T10:24:23.160Z,4.60
2019-02-11T10:26:44.428Z,4.50
2019-02-11T10:28:59.037Z,4.60
2019-02-11T10:31:20.306Z,4.70
2019-02-11T10:33:41.689Z,4.70
2019-02-11T10:36:02.953Z,4.90
2019-02-11T10:38:24.245Z,4.90
2019-02-11T10:40:45.496Z,5.00
2019-02-11T10:43:06.788Z,5.10
2019-02-11T10:45:36.271Z,5.10
2019-02-11T10:48:11.631Z,5.20
2019-02-11T10:50:32.990Z,5.30
2019-02-11T10:52:54.342Z,5.30
2019-02-11T10:58:25.865Z,5.40
2019-02-11T11:00:47.227Z,5.40
2019-02-11T11:03:08.472Z,5.40
2019-02-11T11:05:49.632Z,5.40
2019-02-11T11:08:10.887Z,5.40
2019-02-11T11:10:53.999Z,5.40
2019-02-11T11:13:17.117Z,5.30
2019-02-11T11:15:38.407Z,5.30
2019-02-11T11:18:00.090Z,5.30
2019-02-11T11:20:21.356Z,5.40
2019-02-11T11:23:02.541Z,5.50
2019-02-11T11:25:23.758Z,5.70
2019-02-11T11:27:45.132Z,5.80
2019-02-11T11:29:59.972Z,5.70
2019-02-11T11:32:21.269Z,5.70
2019-02-11T11:34:42.822Z,5.80
2019-02-11T11:36:44.205Z,5.80
2019-02-11T11:39:28.437Z,5.80
2019-02-11T11:41:49.736Z,5.80
2019-02-11T11:44:11.003Z,5.80
2019-02-11T11:46:12.373Z,5.90
2019-02-11T11:48:33.664Z,5.80
2019-02-11T11:50:54.901Z,5.80
2019-02-11T11:53:10.912Z,5.80
2019-02-11T11:55:32.160Z,5.80
2019-02-11T11:57:53.457Z,5.80
2019-02-11T12:00:34.738Z,5.80
2019-02-11T12:03:04.588Z,5.90
2019-02-11T12:05:39.075Z,5.90
2019-02-11T12:08:00.344Z,5.80
2019-02-11T12:10:22.094Z,5.90
2019-02-11T12:12:43.348Z,5.80
2019-02-11T12:15:27.137Z,5.90
2019-02-11T12:18:09.511Z,5.90
2019-02-11T12:20:33.290Z,5.90
2019-02-11T12:23:14.024Z,6.00
2019-02-11T12:25:35.320Z,6.00
2019-02-11T12:27:56.831Z,6.00
2019-02-11T12:29:58.225Z,6.00
2019-02-11T12:32:19.445Z,6.00
2019-02-11T12:34:40.749Z,6.00
2019-02-11T12:37:02.387Z,6.00
2019-02-11T12:39:23.589Z,6.00
2019-02-11T12:41:44.850Z,5.90
2019-02-11T12:44:06.147Z,6.00
2019-02-11T12:46:27.431Z,5.90
2019-02-11T12:48:48.683Z,6.00
2019-02-11T12:51:09.952Z,6.00
2019-02-11T12:53:44.788Z,6.00
2019-02-11T12:55:46.145Z,6.00
2019-02-11T12:58:07.482Z,6.00
2019-02-11T13:00:28.932Z,6.00
2019-02-11T13:02:50.496Z,6.00
2019-02-11T13:05:12.189Z,6.00
2019-02-11T13:07:33.391Z,6.10
2019-02-11T13:10:34.983Z,6.10
2019-02-11T13:12:56.283Z,6.00
2019-02-11T13:15:34.680Z,6.10
2019-02-11T13:18:01.082Z,6.10
2019-02-11T13:20:22.407Z,6.10
2019-02-11T13:22:43.667Z,6.20
2019-02-11T13:25:26.709Z,6.10
2019-02-11T13:27:47.982Z,5.90
2019-02-11T13:30:30.968Z,5.70
2019-02-11T13:32:54.134Z,5.40
2019-02-11T13:35:15.407Z,5.10
2019-02-11T13:37:36.890Z,4.90
2019-02-11T13:39:58.410Z,4.80
2019-02-11T13:42:19.688Z,4.80
2019-02-11T13:44:40.981Z,4.80
2019-02-11T13:47:02.318Z,4.70
2019-02-11T13:49:24.026Z,4.70
2019-02-11T13:51:45.510Z,4.70
2019-02-11T13:54:06.857Z,4.70
2019-02-11T13:56:22.416Z,4.70
2019-02-11T13:58:43.761Z,4.60
2019-02-11T14:01:26.854Z,4.60
2019-02-11T14:03:48.210Z,4.70
2019-02-11T14:06:09.511Z,5.00
2019-02-11T14:08:30.738Z,5.30
2019-02-11T14:10:32.265Z,5.40
2019-02-11T14:12:33.804Z,5.60
2019-02-11T14:14:55.085Z,5.60
2019-02-11T14:17:16.445Z,5.70
2019-02-11T14:19:37.699Z,5.70
2019-02-11T14:21:58.953Z,5.90
2019-02-11T14:24:20.275Z,5.90
2019-02-11T14:26:41.552Z,6.10
2019-02-11T14:29:02.885Z,6.30
2019-02-11T14:31:24.265Z,6.30
2019-02-11T14:33:45.551Z,6.30
2019-02-11T14:36:06.809Z,6.20
2019-02-11T14:38:28.039Z,6.20
2019-02-11T14:40:49.338Z,6.10
2019-02-11T14:43:10.691Z,6.10
2019-02-11T14:45:32.147Z,6.00
2019-02-11T14:47:53.475Z,6.10
2019-02-11T14:50:14.939Z,6.10
2019-02-11T14:52:30.447Z,6.30
2019-02-11T14:54:51.755Z,6.40
2019-02-11T14:57:13.042Z,6.40
2019-02-11T14:59:34.283Z,6.50
2019-02-11T15:01:55.604Z,6.70
2019-02-11T15:04:19.112Z,6.80
2019-02-11T15:06:40.337Z,6.90
2019-02-11T15:09:01.616Z,6.90
2019-02-11T15:11:22.960Z,6.90
2019-02-11T15:13:44.291Z,6.80
2019-02-11T15:16:05.546Z,6.50
2019-02-11T15:18:34.072Z,6.40
2019-02-11T15:23:57.426Z,6.50
2019-02-11T15:26:18.702Z,6.40
2019-02-11T15:28:39.942Z,6.40
2019-02-11T15:31:01.217Z,6.40
2019-02-11T15:33:22.468Z,6.30
2019-02-11T15:35:43.731Z,6.30
2019-02-11T15:38:05.040Z,6.30
2019-02-11T15:40:26.291Z,6.30
2019-02-11T15:42:47.542Z,6.30
2019-02-11T15:45:30.630Z,6.30
2019-02-11T15:47:31.999Z,6.20
2019-02-11T15:49:53.245Z,6.10
2019-02-11T15:52:14.689Z,6.00
2019-02-11T15:54:29.256Z,6.00
2019-02-11T15:56:50.522Z,5.90
2019-02-11T15:59:11.831Z,5.80
2019-02-11T16:01:33.110Z,5.70
2019-02-11T16:03:54.399Z,5.70
2019-02-11T16:06:15.657Z,5.60
2019-02-11T16:08:36.974Z,5.60
2019-02-11T16:11:01.508Z,5.50
2019-02-11T16:13:41.442Z,5.50
2019-02-11T16:16:02.803Z,5.40
2019-02-11T16:18:24.060Z,5.40
2019-02-11T16:20:45.409Z,5.40
2019-02-11T16:23:06.666Z,5.40
2019-02-11T16:25:27.902Z,5.40
2019-02-11T16:27:49.367Z,5.30
2019-02-11T16:30:32.399Z,5.30
2019-02-11T16:32:53.693Z,5.30
2019-02-11T16:35:17.140Z,5.20
2019-02-11T16:37:18.507Z,5.20
2019-02-11T16:39:39.814Z,5.20
2019-02-11T16:42:01.064Z,5.10
2019-02-11T16:44:15.854Z,5.10
2019-02-11T16:46:37.109Z,5.10
2019-02-11T16:49:00.542Z,5.20
2019-02-11T16:51:41.454Z,5.20
2019-02-11T16:54:02.810Z,5.20
2019-02-11T16:56:24.053Z,5.20
2019-02-11T16:58:45.506Z,5.20
2019-02-11T17:01:06.756Z,5.20
2019-02-11T17:03:27.997Z,5.20
2019-02-11T17:05:49.322Z,5.20
2019-02-11T17:08:10.574Z,5.10
2019-02-11T17:10:31.866Z,5.10
2019-02-11T17:12:53.423Z,5.10
2019-02-11T17:15:35.532Z,5.10
2019-02-11T17:17:56.847Z,5.10
2019-02-11T17:20:18.110Z,5.00
2019-02-11T17:22:39.357Z,4.90
2019-02-11T17:25:00.664Z,4.90
2019-02-11T17:27:21.901Z,5.00
2019-02-11T17:29:43.151Z,4.90
2019-02-11T17:32:04.470Z,4.90
2019-02-11T17:34:25.706Z,4.90
2019-02-11T17:36:27.086Z,4.90
2019-02-11T17:38:42.376Z,4.80
2019-02-11T17:41:03.626Z,4.80
2019-02-11T17:43:24.858Z,4.70
2019-02-11T17:45:46.202Z,4.70
2019-02-11T17:48:07.562Z,4.70
2019-02-11T17:50:28.824Z,4.60
2019-02-11T17:53:11.227Z,4.60
2019-02-11T17:55:32.490Z,4.60
2019-02-11T17:57:53.752Z,4.50
2019-02-11T18:03:26.354Z,4.60
2019-02-11T18:05:47.614Z,4.50
2019-02-11T18:08:08.864Z,4.50
2019-02-11T18:10:30.201Z,4.50
2019-02-11T18:12:51.464Z,4.50
2019-02-11T18:15:12.820Z,4.50
2019-02-11T18:17:34.141Z,4.40
2019-02-11T18:19:55.378Z,4.40
2019-02-11T18:22:16.638Z,4.30
2019-02-11T18:24:37.954Z,4.30
2019-02-11T18:26:59.340Z,4.20
2019-02-11T18:29:20.599Z,4.30
2019-02-11T18:31:41.902Z,4.20
2019-02-11T18:34:03.261Z,4.10
2019-02-11T18:36:24.496Z,4.10
2019-02-11T18:38:46.112Z,4.00
2019-02-11T18:41:00.885Z,4.00
2019-02-11T18:43:22.149Z,4.00
2019-02-11T18:45:23.866Z,4.00
2019-02-11T18:47:45.129Z,4.00
2019-02-11T18:50:28.225Z,3.90
2019-02-11T18:52:49.472Z,3.80
2019-02-11T18:55:12.537Z,3.80
2019-02-11T18:57:32.821Z,3.70
2019-02-11T18:59:52.558Z,3.70
2019-02-11T19:01:53.949Z,3.70
2019-02-11T19:03:55.379Z,3.60
2019-02-11T19:05:56.756Z,3.50
2019-02-11T19:07:58.166Z,3.50
2019-02-11T19:09:59.609Z,3.50
2019-02-11T19:12:01.021Z,3.50
2019-02-11T19:14:02.590Z,3.50
2019-02-11T19:16:04.001Z,3.50
2019-02-11T19:18:05.396Z,3.40
2019-02-11T19:20:12.714Z,3.30
2019-02-11T19:22:14.158Z,3.30
2019-02-11T19:24:15.729Z,3.30
2019-02-11T19:26:17.159Z,3.30
2019-02-11T19:28:18.562Z,3.30
2019-02-11T19:30:23.651Z,3.30
2019-02-11T19:32:25.052Z,3.30
2019-02-11T19:34:26.436Z,3.30
2019-02-11T19:36:28.539Z,3.30
2019-02-11T19:38:29.942Z,3.30
2019-02-11T19:40:31.341Z,3.30
2019-02-11T19:42:32.918Z,3.30
2019-02-11T19:44:34.309Z,3.40
2019-02-11T19:46:36.540Z,3.30
2019-02-11T19:48:38.002Z,3.30
2019-02-11T19:50:39.396Z,3.20
2019-02-11T19:52:40.894Z,3.30
2019-02-11T19:54:42.345Z,3.30
2019-02-11T19:56:43.850Z,3.30
2019-02-11T19:58:46.237Z,3.30
2019-02-11T20:00:47.631Z,3.30
2019-02-11T20:02:49.572Z,3.30
2019-02-11T20:04:50.929Z,3.30
2019-02-11T20:06:52.391Z,3.30
2019-02-11T20:08:54.712Z,3.30
2019-02-11T20:10:56.092Z,3.30
2019-02-11T20:12:57.460Z,3.30
2019-02-11T20:14:58.893Z,3.30
2019-02-11T20:17:00.254Z,3.30
2019-02-11T20:19:01.631Z,3.30
2019-02-11T20:21:03.151Z,3.30
2019-02-11T20:23:04.542Z,3.30
2019-02-11T20:25:07.719Z,3.20
2019-02-11T20:27:09.169Z,3.20
2019-02-11T20:29:10.513Z,3.20
2019-02-11T20:31:11.942Z,3.20
2019-02-11T20:33:13.324Z,3.20
2019-02-11T20:35:14.783Z,3.20
2019-02-11T20:37:16.214Z,3.20
2019-02-11T20:39:17.584Z,3.10
2019-02-11T20:41:18.950Z,3.10
2019-02-11T20:43:20.549Z,3.10
2019-02-11T20:45:26.856Z,3.10
2019-02-11T20:47:28.224Z,3.00
2019-02-11T20:49:29.698Z,3.00
2019-02-11T20:51:31.062Z,3.00
2019-02-11T20:53:32.438Z,3.00
2019-02-11T20:55:33.871Z,3.00
2019-02-11T20:57:35.315Z,2.90
2019-02-11T20:59:36.672Z,2.90
2019-02-11T21:01:38.059Z,2.90
2019-02-11T21:03:39.510Z,2.80
2019-02-11T21:05:40.881Z,2.80
2019-02-11T21:07:42.237Z,2.70
2019-02-11T21:09:43.621Z,2.70
2019-02-11T21:11:44.967Z,2.70
2019-02-11T21:13:46.412Z,2.70
2019-02-11T21:15:47.772Z,2.60
2019-02-11T21:17:49.551Z,2.60
2019-02-11T21:19:50.932Z,2.60
2019-02-11T21:21:52.349Z,2.60
2019-02-11T21:23:53.915Z,2.50
2019-02-11T21:25:55.365Z,2.50
2019-02-11T21:27:56.715Z,2.40
2019-02-11T21:29:58.202Z,2.40
2019-02-11T21:31:59.552Z,2.40
2019-02-11T21:34:01.003Z,2.40
2019-02-11T21:36:02.850Z,2.40
2019-02-11T21:38:04.214Z,2.40
2019-02-11T21:40:05.894Z,2.30
2019-02-11T21:42:07.353Z,2.40
2019-02-11T21:44:08.772Z,2.30
2019-02-11T21:46:10.145Z,2.30
2019-02-11T21:48:11.577Z,2.30
2019-02-11T21:50:26.097Z,2.20
2019-02-11T21:52:21.348Z,2.20
2019-02-11T21:54:22.688Z,2.20
2019-02-11T21:56:24.056Z,2.20
2019-02-11T21:58:25.481Z,2.20
2019-02-11T22:00:26.860Z,2.20
2019-02-11T22:02:28.230Z,2.20
2019-02-11T22:04:29.624Z,2.20
2019-02-11T22:06:31.181Z,2.20
2019-02-11T22:08:32.557Z,2.10
2019-02-11T22:10:33.968Z,2.10
2019-02-11T22:12:35.307Z,2.10
2019-02-11T22:14:36.727Z,2.10
2019-02-11T22:16:38.083Z,2.00
2019-02-11T22:18:39.461Z,2.10
2019-02-11T22:20:40.906Z,2.00
2019-02-11T22:22:42.315Z,2.00
2019-02-11T22:24:43.640Z,2.00
2019-02-11T22:26:45.055Z,2.10
2019-02-11T22:28:46.395Z,2.00
2019-02-11T22:30:47.781Z,2.00
2019-02-11T22:32:49.196Z,2.00
2019-02-11T22:34:50.564Z,2.00
2019-02-11T22:36:52.011Z,1.90
2019-02-11T22:38:53.428Z,1.90
2019-02-11T22:40:54.843Z,1.90
2019-02-11T22:42:56.228Z,1.90
2019-02-11T22:44:57.613Z,1.90
2019-02-11T22:46:59.059Z,1.90
2019-02-11T22:49:00.446Z,1.90
2019-02-11T22:51:01.788Z,2.00
2019-02-11T22:53:03.302Z,2.10
2019-02-11T22:55:08.408Z,2.10
2019-02-11T22:57:09.731Z,2.10
2019-02-11T22:59:11.475Z,2.10
2019-02-11T23:01:13.534Z,2.10
2019-02-11T23:03:15.390Z,2.10
2019-02-11T23:05:16.845Z,2.10
2019-02-11T23:07:18.220Z,2.10
2019-02-11T23:09:19.615Z,2.20
2019-02-11T23:11:21.139Z,2.20
2019-02-11T23:13:22.530Z,2.20
2019-02-11T23:15:23.931Z,2.20
2019-02-11T23:17:25.308Z,2.30
2019-02-11T23:19:26.800Z,2.30
2019-02-11T23:21:28.157Z,2.30
2019-02-11T23:23:29.571Z,2.30
2019-02-11T23:25:30.901Z,2.30
2019-02-11T23:27:32.302Z,2.30
2019-02-11T23:29:33.714Z,2.30
2019-02-11T23:31:35.098Z,2.30
2019-02-11T23:33:36.471Z,2.30
2019-02-11T23:35:37.836Z,2.30
2019-02-11T23:37:39.669Z,2.30
2019-02-11T23:39:41.039Z,2.40
2019-02-11T23:41:42.410Z,2.30
2019-02-11T23:43:43.816Z,2.40
2019-02-11T23:45:45.416Z,2.40
2019-02-11T23:47:46.761Z,2.40
2019-02-11T23:49:48.156Z,2.40
2019-02-11T23:51:49.562Z,2.50
2019-02-11T23:53:51.007Z,2.40
2019-02-11T23:55:52.396Z,2.50
2019-02-11T23:57:53.760Z,2.50
2019-02-11T23:59:55.361Z,2.50
